NCAR-RAP Real-Time Weather Data

Output produced by METARs form (16 August 2018  19:24 UTC)
found at http://weather.rap.ucar.edu/surface/
 
RJOK 161100Z 01003KT 9999 FEW007 SCT060 BKN150 26/24 Q1009
RJOK 161000Z 34003KT 9999 VCSH FEW007 SCT040 BKN060 26/24 Q1008
RJOK 160900Z 23003KT 9999 VCSH FEW005 SCT010 BKN080 27/24 Q1008
RJOK 160810Z 24003KT 9999 VCSH FEW005 SCT020 FEW030CB BKN080 27/24 Q1009 RMK 1ST005 3CU020 1CB030 5AC080 A2979 CB 20KM NW MOV SE
RJOK 160800Z VRB02KT 9999 TS FEW005 FEW030CB BKN080 BKN150 27/25 Q1008
RJOK 160700Z 36004KT 9999 -SHRA FEW010 SCT025 FEW025TCU BKN150 27/24 Q1008
RJOK 160600Z VRB01KT 9999 -SHRA FEW015 BKN030 BKN150 28/24 Q1008
RJOK 160500Z VRB02KT 9999 FEW015 BKN030 BKN150 28/23 Q1009
RJOK 160400Z VRB01KT 9999 FEW010 SCT030 BKN050 28/24 Q1009
RJOK 160300Z 03005KT 9999 -SHRA FEW004 SCT030 BKN050 26/24 Q1010
RJOK 160226Z 05004KT 9999 -SHRA FEW003 SCT020 BKN030 26/24 Q1010 RMK 1ST003 3CU020 5CU030 A2984
RJOK 160200Z VRB02KT 9999 SHRA FEW003 SCT015 BKN030 26/24 Q1011
RJOK 160100Z 01004KT 340V050 9000 SHRA FEW004 SCT012 BKN020 25/24 Q1010
RJOK 160030Z 08003KT 050V140 6000 R32/1000VP1800U TSRA FEW004 SCT010 BKN015 SCT020CB 25/24 Q1010 RMK 1ST004 3ST010 5CU015 3CB020 A2985 FBL TS 20KM E MOV NE CB OHD MOV NE
RJOK 160025Z VRB02KT 5000 R32/1000VP1800D TSRA BR FEW004 SCT010 BKN015 SCT020CB 25/24 Q1010 RMK 1ST004 3ST010 5CU015 3CB020 A2985 FBL TS 20KM E MOV NE CB OHD MOV NE
RJOK 160002Z VRB02KT 5000 TSRA BR FEW004 SCT010 BKN015 FEW020CB 25/24 Q1010 RMK 1ST004 3ST010 5CU015 2CB020 A2985 FBL TS 20KM NE-E MOV NE
RJOK 160000Z VRB02KT 5000 SHRA BR FEW004 SCT010 BKN015 FEW020CB 25/24 Q1010
RJOK 152324Z 29007KT 5000 SHRA BR FEW004 SCT010 BKN015 FEW020CB 25/24 Q1010 RMK 1ST004 3ST010 5CU015 2CB020 A2984 CB 10KM NE-E MOV NE
RJOK 152309Z 27007KT 230V320 4000 R32/1100VP1800U +TSRA BR FEW002 SCT008 BKN015CB 25/24 Q1010 RMK 1ST002 3ST008 6CB015 A2984 RI++ MOD TS 20KM NE MOV NE CB OHD MOV NE
RJOK 152300Z 29007KT 2000 R32/0650V1800D +TSRA BR FEW002 SCT008 BKN015 BKN025CB 25/24 Q1010
RJOK 152240Z 20004KT 3500 R32/1000VP1800D +TSRA BR FEW002 SCT010 BKN020 SCT025CB 25/24 Q1010 RMK 1ST002 3ST010 5CU020 3CB025 A2983 FBL TS 15KM N MOV NE CB OHD MOV NE RI++
RJOK 152239Z 19005KT 3500 R32/0550VP1800U +TSRA BR FEW002 SCT010 BKN020 SCT025CB 26/24 Q1010 RMK 1ST002 3ST010 5CU020 3CB025 A2983 FBL TS 15KM N MOV NE CB OHD MOV NE RI++
RJOK 152231Z 28013KT 5000 R32/0450V1700D +TSRA BR FEW002 SCT008 BKN015 SCT025CB 25/24 Q1009 RMK 1ST002 3ST008 5CU015 3CB025 A2982 MOD TS 10KM N MOV NE CB FM 5KM SW TO 30KM N MOV NE RI++
RJOK 152227Z 27017G35KT 2000 R32/0500VP1800D +TSRA BR FEW002 SCT008 BKN015 SCT025CB 26/23 Q1009 RMK 1ST002 3ST008 5CU015 3CB025 A2982 FBL TS 10KM N MOV NE CB FM 5KM SW TO 30KM N MOV NE RI++
RJOK 152220Z 23024G35KT 170V270 2000 +TSRA BR FEW010 SCT015 BKN020 SCT025CB 27/24 Q1009 RMK 1ST010 3CU015 5CU020 3CB025 A2981 FBL TS 10KM N MOV NE CB FM 10KM SW TO 30KM N MOV NE RI++
RJOK 152200Z 16011KT 9999 VCSH FEW010 SCT015 BKN020 FEW025CB 28/25 Q1009
RJOK 152110Z 15008KT 9999 VCSH FEW008 SCT015 FEW025CB BKN030 28/25 Q1009 RMK 1ST008 3CU015 1CB025 5CU030 A2980 CB 15KM W-NW MOV NE AND SW
RJOK 151137Z 14012KT 5000 R32/1000VP1800U SHRA BR FEW008 SCT010 BKN015 SCT020CB 26/24 Q1011 RMK 1ST008 3ST010 5CU015 3CB020 A2986 CB OHD MOV N
RJOK 151129Z 14010KT 100V160 2500 R32/1000VP1800D +SHRA BR FEW008 SCT010 BKN015CB 26/24 Q1011 RMK 1ST008 3ST010 6CB015 A2987 RI++ CB OHD MOV N
RJOK 151108Z 14011KT 3000 R32/1300VP1800D +SHRA BR FEW008 SCT010 BKN015 FEW020CB 26/24 Q1011 RMK 1ST008 3ST010 5CU015 2CB020 A2986 CB ALL QUAD MOV N
RJOK 151100Z 14012KT 7000 -SHRA FEW008 SCT010 BKN015 FEW020CB 26/24 Q1011
RJOK 151018Z 13009KT 7000 -TSRA FEW010 SCT012 FEW020CB BKN025 28/26 Q1010 RMK 1ST010 3ST012 1CB020 5CU025 A2985 FBL TS 20KM W MOV N CB 15KM NW MOV N
RJOK 151000Z 13010KT 3500 TSRA BR FEW008 SCT010 FEW020CB BKN025 28/26 Q1011
RJOK 150900Z VRB02KT 9999 -SHRA FEW004 BKN010 BKN015 FEW020CB 27/25 Q1010
RJOK 150834Z 05003KT 020V080 9999 -SHRA FEW008 SCT010 BKN015 FEW020CB 26/25 Q1011 RMK 1ST008 3ST010 5CU015 1CB020 A2985 CB 10KM SW AND NW MOV N
RJOK 150800Z 35004KT 9999 TS VCSH FEW008 SCT010 BKN015 FEW020CB 26/24 Q1011
RJOK 150700Z VRB02KT 9999 -SHRA BR FEW003 SCT015 FEW020CB BKN025 26/24 Q1011
RJOK 150626Z 03004KT 320V070 9999 -SHRA BR FEW002 SCT010 BKN015 FEW020CB 26/24 Q1011 RMK 1ST002 3ST010 5CU015 2CB020 A2987 4000NW CB 10KM N MOV N
RJOK 150607Z 06006KT 020V110 9999 R32/0800VP1800U SHRA BR FEW003 SCT010 BKN015 SCT020CB 25/24 Q1011 RMK 1ST003 4ST010 6CU015 3CB020 A2987 3000SW-NW CB OHD MOV N
RJOK 150600Z 04006KT 5000 R32/0800VP1800D SHRA BR FEW003 SCT010 BKN015 SCT020CB 26/24 Q1011
RJOK 150544Z 02005KT 5000 R32/1100VP1800U SHRA BR FEW003 SCT010 BKN015 FEW020CB 26/24 Q1011 RMK 1ST003 3ST010 5CU015 1CB020 A2988 CB 10KM W MOV N
RJOK 150535Z 03005KT 2000 R32/1100VP1800D +SHRA BR FEW003 SCT010 BKN015 FEW020CB 26/24 Q1011 RMK 1ST003 3ST010 5CU015 1CB020 A2988 CB 15KM SW MOV N RI++
RJOK 150532Z 03005KT 2000 R32/1100VP1800D +SHRA BR FEW003 SCT010 BKN015 FEW020CB 26/24 Q1012 RMK 1ST003 3ST010 5CU015 1CB020 A2988 CB 15KM SW MOV N RI++
RJOK 150500Z 33005KT 300V360 9999 -TSRA FEW002 SCT006 BKN015 FEW020CB 26/24 Q1012
RJOK 150444Z 28005KT 250V310 4000 R32/0700VP1800U -TSRA BR FEW003 SCT009 BKN015 FEW020CB 26/24 Q1012 RMK 2ST003 4ST009 5CU015 2CB020 A2989 FBL TS 10KM N MOV N
RJOK 150437Z VRB05KT 2000 R32/0450V1300U +TSRA BR FEW003 SCT012 BKN020CB 26/24 Q1012 RMK 2ST003 4ST012 5CB020 A2989 FBL TS OHD MOV N RI++
RJOK 150434Z VRB04KT 2000 R32/0450VP1800D +TSRA BR FEW003 BKN012 BKN020CB 26/24 Q1012 RMK 2ST003 5ST012 6CB020 A2989 FBL TS OHD MOV N
RJOK 150430Z VRB02KT 2000 R32/0500VP1800D +TSRA BR FEW003 BKN012 BKN020CB 26/24 Q1012 RMK 2ST003 5ST012 6CB020 A2989 RI++ FBL TS OHD MOV N
RJOK 150426Z VRB01KT 2000 R32/1200VP1800D TSRA BR FEW003 BKN012 BKN020CB 26/24 Q1012 RMK 2ST003 5ST012 6CB020 A2990 MOD TS OHD MOV N
RJOK 150418Z VRB02KT 5000 -TSRA BR FEW003 BKN009 BKN020CB 26/24 Q1012 RMK 2ST003 5ST009 6CB020 A2988 HVY TS OHD MOV N
RJOK 150414Z VRB03KT 5000 R32/0750VP1800U -TSRA BR FEW003 BKN009 BKN015 FEW020CB 26/24 Q1012 RMK 2ST003 5ST009 6CU015 2CB020 A2988 FBL TS 10KM S MOV N
RJOK 150410Z 17005KT 140V210 4000 R32/0750VP1800U +SHRA BR FEW003 BKN009 BKN015 FEW020CB 26/24 Q1012 RMK 2ST003 5ST009 6CU015 2CB020 A2989 8000SW-NW CB 5KM NE-SE MOV N
RJOK 150407Z 17006KT 140V220 3000 R32/0750VP1800D +SHRA BR FEW003 BKN009 BKN015 FEW020CB 26/24 Q1012 RMK 2ST003 5ST009 6CU015 2CB020 A2989 8000SW-NW CB 5KM NE-SE MOV N
RJOK 150402Z 20006KT 150V250 3000 R32/0900VP1800D +SHRA BR FEW003 BKN009 BKN015 FEW020CB 26/24 Q1012 RMK 2ST003 5ST009 6CU015 2CB020 A2989 CB 5KM NE-SE MOV N
RJOK 150400Z 21006KT 150V250 3000 R32/0800VP1800U +SHRA BR FEW003 BKN009 BKN015 FEW020CB 26/24 Q1012
RJOK 150336Z 17005KT 100V220 1500 R32/0900VP1800D +TSRA BR FEW003 SCT007 BKN015CB 26/24 Q1012 RMK 1ST003 4ST007 6CB015 A2989 RI++ FBL TS 10KM SE MOV N CB OHD MOV N
RJOK 150333Z 13003KT 050V220 1800 R32/0900VP1800U +TSRA BR FEW003 SCT008 BKN015CB 26/24 Q1012 RMK 1ST003 4ST008 6CB015 A2989 FBL TS 10KM SE MOV N CB OHD MOV N RI++
RJOK 150320Z 12006KT 090V150 2000 R32/0650VP1800U +TSRA BR FEW003 SCT008 BKN015CB 26/24 Q1012 RMK 1ST003 4ST008 6CB015 A2988 FBL TS 15KM S MOV N CB OHD MOV N
RJOK 150314Z 11008KT 2500 R32/0650VP1800D +TSRA BR FEW003 SCT008 BKN015 SCT020CB 26/24 Q1012 RMK 1ST003 3ST008 5CU015 3CB020 A2988 FBL TS 15KM S MOV N CB OHD MOV N
RJOK 150311Z 11008KT 2500 +TSRA BR FEW003 SCT008 BKN015 SCT020CB 26/24 Q1012 RMK 1ST003 3ST008 5CU015 3CB020 A2989 FBL TS 15KM S MOV N CB OHD MOV N
RJOK 150300Z 10010KT 9999 -TSRA FEW003 SCT008 BKN015 FEW020CB 27/25 Q1012
RJOK 150240Z 12010KT 9999 TS VCSH FEW005 SCT015 FEW020CB BKN025 27/25 Q1012 RMK 1ST005 3CU015 1CB020 5CU025 A2989 FBL TS 30KM S MOV N
RJOK 150207Z 11009KT 9999 -SHRA FEW003 SCT015 FEW020CB BKN030 26/24 Q1012 RMK 1ST003 3CU015 1CB020 5CU030 A2989 CB 10KM NE-SE MOV N
RJOK 150200Z 11008G18KT 9999 SHRA BR FEW003 SCT015 FEW020CB BKN025 27/24 Q1012
RJOK 150100Z 10009KT 9999 -SHRA FEW005 SCT010 BKN025 26/24 Q1012
RJOK 150015Z 15007KT 9999 -SHRA FEW005 FEW025CB SCT030 BKN060 27/25 Q1012 RMK 1ST005 1CB025 3CU030 6SC060 A2990 CB 20KM N MOV N
RJOK 150000Z 13007KT 9999 -TSRA FEW004 SCT020 FEW025CB BKN030 26/24 Q1012
RJOK 142344Z 13015G25KT 9999 R32/0700VP1800U SHRA BR FEW004 SCT010 BKN015 FEW020CB 26/24 Q1012 RMK 2ST004 3ST010 5CU015 2CB020 A2989 3500NE-E CB 5KM E MOV N
RJOK 142337Z 13014KT 2500 R32/0750VP1800U +SHRA BR FEW004 SCT010 BKN015 SCT020CB 26/24 Q1012 RMK 2ST004 3ST010 5CU015 3CB020 A2990 5000W-NW CB OHD MOV N
RJOK 142331Z 11010KT 3000 R32/0800VP1800D +SHRA BR FEW004 SCT010 BKN015 SCT020CB 27/24 Q1012 RMK 2ST004 3ST010 5CU015 3CB020 A2989 CB OHD MOV N
RJOK 142321Z 10006KT 2800 R32/1100VP1800D SHRA BR FEW005 SCT015 BKN020 SCT025CB 27/24 Q1012 RMK 1ST005 3CU015 5CU020 3CB025 A2989 CB OHD MOV N
RJOK 142300Z 11009KT 9999 VCSH FEW008 SCT020 FEW025CB BKN030 27/25 Q1012
RJOK 142234Z 14009KT 9999 R32/0800VP1800U -SHRA FEW005 SCT015 BKN030 27/25 Q1012 RMK 1ST005 3CU015 5CU030 A2990
RJOK 142227Z 15008KT 120V190 9999 R32/0650VP1800D -SHRA FEW005 SCT015 BKN025 27/24 Q1012 RMK 1ST005 3CU015 5CU025 A2990
RJOK 142224Z 16008KT 5000 R32/0650VP1800D +SHRA BR FEW005 SCT015 BKN020 27/24 Q1012 RMK 1ST005 3CU015 5CU020 A2990
RJOK 142203Z 16012KT 9999 -SHRA FEW003 SCT012 BKN015 FEW020CB 26/24 Q1012 RMK 1ST003 3ST012 5CU015 1CB020 A2990 P/RR CB 10KM N MOV N
RJOK 142200Z 16011KT 9999 R32/0700VP1800U -SHRA BR FEW003 SCT012 BKN015 FEW020CB 26/24 Q1012
RJOK 142110Z 10010KT 9999 FEW007 BKN012 BKN015 FEW025CB 27/25 Q1011 RMK 2ST007 5ST012 6CU015 1CB025 A2987 CB S-SW
RJOK 141100Z 11006KT 9999 FEW030 SCT040 30/22 Q1011
RJOK 141000Z 12008KT 9999 FEW030 SCT040 BKN/// 30/23 Q1010
RJOK 140900Z 15012KT 9999 FEW030 SCT040 30/24 Q1010
RJOK 140800Z 15014KT 9999 FEW030 31/24 Q1010